Time;durP1;ratioP1;P1;durP2;ratioP2;P2;SDS_P1;SDS_P2;PMS_P1;PMS_P2;Temp;Humidity;BMP_temperature;BMP_pressure;BME280_temperature;BME280_humidity;BME280_pressure;Samples;Min_cycle;Max_cycle;Signal;HPM_P1;HPM_P2
2022/05/09 04:12:11;;;;;;;12.10;9.50;;;;;;;12.64;100.00;101060.31;5557602;32;224737;-88
2022/05/09 04:18:37;;;;;;;10.68;8.18;;;;;;;12.93;97.87;101063.38;5549107;32;33098;-92
2022/05/09 04:21:40;;;;;;;9.38;8.02;;;;;;;13.16;96.16;101057.84;5558927;32;33761;-92
2022/05/09 04:24:43;;;;;;;13.73;8.07;;;;;;;13.37;93.58;101063.91;5549645;32;34669;-92
2022/05/09 04:27:46;;;;;;;8.32;7.32;;;;;;;13.56;92.13;101071.84;5544834;32;33881;-86
2022/05/09 04:30:49;;;;;;;11.50;7.43;;;;;;;13.68;90.65;101078.34;5546034;32;32263;-86
2022/05/09 04:33:52;;;;;;;8.07;7.28;;;;;;;13.92;89.80;101079.84;5551651;32;34185;-86
2022/05/09 04:36:58;;;;;;;8.15;6.97;;;;;;;14.18;88.56;101073.09;5549347;32;32954;-86
2022/05/09 04:40:01;;;;;;;8.88;7.00;;;;;;;14.41;86.84;101079.00;5550741;32;33468;-86
2022/05/09 04:43:04;;;;;;;8.95;6.90;;;;;;;14.41;85.18;101085.22;5558342;32;33990;-86
2022/05/09 04:46:07;;;;;;;7.82;7.03;;;;;;;14.54;84.32;101088.03;5556153;32;34146;-86
2022/05/09 04:49:10;;;;;;;8.43;7.03;;;;;;;14.71;83.46;101090.72;5536637;32;34145;-88
2022/05/09 04:52:15;;;;;;;9.98;6.75;;;;;;;14.71;83.04;101088.94;5540331;32;34668;-87
2022/05/09 04:55:19;;;;;;;10.07;7.10;;;;;;;14.77;83.23;101080.59;5531752;32;32560;-85
2022/05/09 04:58:22;;;;;;;11.68;7.93;;;;;;;14.88;83.29;101082.66;5532263;32;33855;-84
2022/05/09 05:01:25;;;;;;;9.32;7.45;;;;;;;14.91;81.47;101082.50;5535181;32;32954;-85
2022/05/09 05:04:28;;;;;;;9.63;7.37;;;;;;;15.01;82.54;101080.16;5539782;32;32846;-85
2022/05/09 05:07:30;;;;;;;9.32;7.10;;;;;;;15.06;81.41;101088.78;5527773;32;33925;-85
2022/05/09 05:10:33;;;;;;;9.77;7.07;;;;;;;15.15;81.36;101089.19;5536123;32;33647;-85
2022/05/09 05:13:36;;;;;;;10.38;7.12;;;;;;;15.43;80.13;101095.63;5527679;32;33952;-85
2022/05/09 05:20:00;;;;;;;;;;;;;;;15.89;78.04;101092.84;5524825;32;33678;-86
2022/05/09 05:23:04;;;;;;;7.05;6.37;;;;;;;16.11;76.53;101093.38;5510513;32;34327;-87
2022/05/09 05:26:07;;;;;;;7.18;5.80;;;;;;;16.73;73.37;101094.84;5510052;32;34027;-86
2022/05/09 05:29:09;;;;;;;10.15;6.60;;;;;;;18.04;69.96;101095.13;5511360;32;33635;-86
2022/05/09 05:32:19;;;;;;;11.55;6.90;;;;;;;19.45;64.60;101094.00;5520914;32;35128;-86
2022/05/09 05:35:24;;;;;;;8.38;6.72;;;;;;;19.67;64.02;101095.91;5528264;32;33229;-86
2022/05/09 05:38:27;;;;;;;12.13;6.82;;;;;;;19.62;64.24;101092.72;5521877;32;33896;-86
2022/05/09 05:41:32;;;;;;;13.90;7.03;;;;;;;19.61;63.19;101101.75;5522445;32;32773;-86
2022/05/09 05:44:37;;;;;;;8.88;6.30;;;;;;;19.23;64.67;101102.84;5524506;32;34344;-85
2022/05/09 05:47:40;;;;;;;9.73;6.70;;;;;;;19.61;63.58;101104.44;5514297;32;33391;-86
2022/05/09 05:50:44;;;;;;;8.70;6.10;;;;;;;19.56;63.92;101106.62;5523048;32;34723;-86
2022/05/09 05:53:47;;;;;;;9.20;5.85;;;;;;;19.67;63.10;101114.75;5528193;32;34162;-85
2022/05/09 05:56:50;;;;;;;7.53;5.50;;;;;;;18.88;65.71;101117.91;5513928;32;32579;-85
2022/05/09 05:59:56;;;;;;;10.98;5.80;;;;;;;19.06;61.55;101112.19;5524416;32;33614;-85
2022/05/09 06:02:58;;;;;;;5.93;5.32;;;;;;;18.94;62.11;101120.16;5517174;32;34628;-87
2022/05/09 06:06:04;;;;;;;6.47;5.78;;;;;;;19.12;63.17;101114.41;5509538;32;33202;-85
2022/05/09 06:09:09;;;;;;;9.70;6.10;;;;;;;19.31;62.59;101110.34;5517069;32;33856;-89
2022/05/09 06:12:14;;;;;;;7.32;5.65;;;;;;;19.43;62.10;101122.88;5513402;32;33490;-85
2022/05/09 06:15:28;;;;;;;5.82;5.03;;;;;;;19.53;60.64;101123.88;5516376;32;33241;-85
2022/05/09 06:18:31;;;;;;;8.60;5.35;;;;;;;20.03;58.90;101117.44;5511790;32;32345;-85
2022/05/09 06:21:37;;;;;;;13.93;5.25;;;;;;;20.50;57.86;101124.56;5513095;32;32331;-84
2022/05/09 06:24:40;;;;;;;8.93;5.15;;;;;;;20.99;55.63;101125.16;5518246;32;32432;-85
2022/05/09 06:27:43;;;;;;;6.15;4.60;;;;;;;21.10;55.95;101126.06;5516885;32;32365;-85
2022/05/09 06:30:46;;;;;;;7.85;4.97;;;;;;;22.07;53.76;101127.84;5517347;32;34928;-85
2022/05/09 06:33:48;;;;;;;7.43;5.15;;;;;;;22.03;51.71;101130.97;5509608;32;33922;-87
2022/05/09 06:36:51;;;;;;;5.55;4.80;;;;;;;22.07;51.17;101129.69;5512897;32;34828;-87
2022/05/09 06:39:54;;;;;;;5.35;4.40;;;;;;;21.67;52.58;101125.84;5514461;32;32502;-87
2022/05/09 06:43:00;;;;;;;5.45;4.82;;;;;;;22.51;50.79;101139.41;5528196;32;33760;-87
2022/05/09 06:46:03;;;;;;;5.20;4.70;;;;;;;22.29;51.02;101128.69;5518601;32;34649;-87
2022/05/09 06:49:06;;;;;;;7.30;4.70;;;;;;;22.38;51.11;101135.09;5519550;32;33903;-87
2022/05/09 06:52:08;;;;;;;9.77;4.72;;;;;;;22.40;50.34;101134.97;5512036;32;32570;-86
2022/05/09 06:55:12;;;;;;;5.90;4.82;;;;;;;21.88;51.82;101139.38;5512847;32;34452;-87
2022/05/09 06:58:21;;;;;;;5.15;4.65;;;;;;;22.40;50.47;101134.97;5508937;32;32993;-88
2022/05/09 07:01:24;;;;;;;4.55;4.15;;;;;;;23.23;48.19;101134.78;5518289;32;32475;-87
2022/05/09 07:04:28;;;;;;;9.63;4.70;;;;;;;23.34;48.53;101136.56;5531505;32;33564;-86
2022/05/09 07:07:31;;;;;;;5.00;4.50;;;;;;;22.86;49.78;101130.91;5518596;32;34160;-87
2022/05/09 07:10:33;;;;;;;5.47;4.70;;;;;;;23.34;48.06;101139.25;5520055;32;33137;-87
2022/05/09 07:13:36;;;;;;;6.60;4.30;;;;;;;23.60;47.65;101148.66;5528835;32;33013;-87
2022/05/09 07:16:39;;;;;;;6.53;4.80;;;;;;;24.66;45.53;101141.38;5539110;32;35212;-88
2022/05/09 07:19:42;;;;;;;5.03;4.62;;;;;;;24.93;43.01;101142.44;5523981;32;34008;-87
2022/05/09 07:22:47;;;;;;;8.88;4.45;;;;;;;25.21;42.71;101145.09;5521234;32;33766;-86
2022/05/09 07:25:50;;;;;;;8.45;4.70;;;;;;;25.35;41.64;101143.69;5513790;32;33635;-86
2022/05/09 07:28:54;;;;;;;7.70;4.50;;;;;;;25.08;43.22;101140.88;5510829;32;34240;-86
2022/05/09 07:31:57;;;;;;;7.55;4.55;;;;;;;25.05;43.06;101137.63;5510706;32;32756;-86
2022/05/09 07:35:00;;;;;;;4.95;4.40;;;;;;;24.95;42.51;101137.69;5509751;32;32838;-86
2022/05/09 07:38:03;;;;;;;9.13;5.07;;;;;;;25.50;41.26;101127.72;5519858;32;32458;-86
2022/05/09 07:41:11;;;;;;;7.40;4.50;;;;;;;25.45;40.44;101130.91;5517813;32;34017;-86
2022/05/09 07:44:13;;;;;;;5.47;4.45;;;;;;;25.81;39.37;101132.75;5523975;32;33933;-87
2022/05/09 07:47:16;;;;;;;5.40;4.45;;;;;;;26.12;38.38;101137.69;5509279;32;32540;-87
2022/05/09 07:50:20;;;;;;;4.93;4.43;;;;;;;25.35;39.73;101131.00;5512437;32;34026;-87
2022/05/09 07:53:30;;;;;;;6.45;4.90;;;;;;;25.65;38.49;101133.47;5510767;32;33848;-87
2022/05/09 07:56:34;;;;;;;6.35;4.80;;;;;;;26.49;37.94;101138.41;5509132;32;33928;-87
2022/05/09 07:59:37;;;;;;;5.37;4.87;;;;;;;26.79;37.64;101133.44;5509251;32;34472;-87
2022/05/09 08:02:40;;;;;;;5.45;4.72;;;;;;;27.07;37.01;101144.09;5524756;32;33953;-87
2022/05/09 08:05:44;;;;;;;6.90;4.80;;;;;;;26.98;36.13;101132.34;5517703;32;32388;-91
2022/05/09 08:08:50;;;;;;;6.30;4.80;;;;;;;27.49;35.83;101130.53;5519590;32;32607;-91
2022/05/09 08:11:53;;;;;;;6.03;4.72;;;;;;;27.01;36.39;101134.72;5508720;32;33268;-91
2022/05/09 08:14:56;;;;;;;5.45;4.90;;;;;;;27.13;35.54;101132.53;5514905;32;33914;-88
2022/05/09 08:18:02;;;;;;;5.50;4.82;;;;;;;27.98;34.01;101132.37;5515632;32;32572;-87
2022/05/09 08:21:05;;;;;;;7.57;4.55;;;;;;;28.13;32.28;101129.78;5520396;32;35502;-88
2022/05/09 08:24:08;;;;;;;5.47;4.90;;;;;;;28.29;32.14;101141.69;5526694;32;33482;-87
2022/05/09 08:27:11;;;;;;;7.18;4.72;;;;;;;28.24;31.70;101125.88;5510078;32;34691;-87
2022/05/09 08:30:14;;;;;;;7.07;4.82;;;;;;;28.48;31.88;101126.81;5529719;32;32506;-87
2022/05/09 08:33:21;;;;;;;6.28;5.10;;;;;;;28.23;32.33;101124.16;5525530;32;34523;-87
2022/05/09 08:39:46;;;;;;;5.97;4.72;;;;;;;29.39;29.79;101123.56;5511632;32;33281;-88
2022/05/09 08:43:04;;;;;;;6.28;4.12;;;;;;;29.93;28.64;101115.41;5511253;32;32625;-88
2022/05/09 08:46:18;;;;;;;5.90;4.68;;;;;;;28.45;29.90;101124.44;5515826;32;33872;-88
2022/05/09 08:49:31;;;;;;;8.57;4.85;;;;;;;27.56;30.93;101128.81;5517782;32;34044;-88
2022/05/09 08:53:02;;;;;;;7.53;5.10;;;;;;;28.50;28.85;101125.59;5515695;32;31505;-88
2022/05/09 08:56:10;;;;;;;4.75;4.35;;;;;;;28.90;29.10;101125.59;5526040;32;32924;-87
2022/05/09 08:59:26;;;;;;;7.75;4.70;;;;;;;29.19;29.67;101121.31;5529592;32;33118;-87
2022/05/09 09:02:51;;;;;;;6.35;4.95;;;;;;;28.82;29.32;101127.50;5513233;32;33487;-89
2022/05/09 09:06:15;;;;;;;5.47;4.82;;;;;;;28.01;30.18;101126.59;5514675;32;33920;-89
2022/05/09 09:09:39;;;;;;;11.80;4.87;;;;;;;29.20;29.74;101122.16;5560581;26;34516;-90
2022/05/09 09:12:48;;;;;;;5.43;4.93;;;;;;;29.51;27.99;101124.00;5515266;32;34044;-89
2022/05/09 09:16:47;;;;;;;5.28;4.78;;;;;;;29.86;27.93;101121.63;5544132;26;33860;-89
2022/05/09 09:20:02;;;;;;;11.68;4.97;;;;;;;29.46;27.84;101113.59;5526077;32;33906;-89
2022/05/09 09:23:39;;;;;;;5.07;4.68;;;;;;;29.31;28.94;101121.72;5526059;26;33646;-90
2022/05/09 09:27:06;;;;;;;5.65;4.95;;;;;;;30.85;26.02;101128.87;5504171;32;34544;-90
2022/05/09 09:30:21;;;;;;;5.87;4.62;;;;;;;29.58;26.75;101126.84;5511545;32;33916;-89
2022/05/09 09:33:24;;;;;;;8.13;4.53;;;;;;;29.95;28.05;101124.25;5511892;32;33596;-90
2022/05/09 09:36:36;;;;;;;7.37;4.78;;;;;;;29.29;27.98;101123.81;5523808;32;32746;-90
2022/05/09 09:39:40;;;;;;;7.03;4.87;;;;;;;29.01;27.78;101128.97;5510634;32;32704;-90
2022/05/09 09:42:43;;;;;;;7.20;4.93;;;;;;;30.06;28.20;101118.34;5511820;32;33884;-90
2022/05/09 09:46:03;;;;;;;5.22;4.72;;;;;;;29.71;28.26;101118.84;5509672;32;32699;-89
2022/05/09 09:49:08;;;;;;;6.28;4.97;;;;;;;30.17;27.37;101121.69;5510741;32;34475;-90
2022/05/09 09:52:18;;;;;;;12.68;5.12;;;;;;;32.14;24.40;101112.53;5510291;32;34150;-89
2022/05/09 09:55:39;;;;;;;5.53;4.95;;;;;;;31.15;26.23;101115.06;5515798;32;34045;-89
2022/05/09 09:58:42;;;;;;;7.80;5.05;;;;;;;31.59;25.34;101118.66;5502052;32;32271;-89
2022/05/09 10:02:01;;;;;;;5.40;4.90;;;;;;;31.65;25.99;101111.53;5512710;32;34316;-88
2022/05/09 10:05:11;;;;;;;5.62;4.55;;;;;;;28.79;29.76;101109.59;5516901;32;34611;-88
2022/05/09 10:08:25;;;;;;;7.85;4.37;;;;;;;29.02;29.65;101106.91;5513346;32;32562;-88
2022/05/09 10:11:30;;;;;;;6.93;4.50;;;;;;;30.42;28.04;101097.59;5511993;32;33516;-90
2022/05/09 10:14:35;;;;;;;8.35;4.80;;;;;;;31.64;26.27;101104.34;5525614;32;32283;-88
2022/05/09 10:17:39;;;;;;;10.75;4.78;;;;;;;31.95;25.98;101103.97;5514832;32;33440;-87
2022/05/09 10:20:43;;;;;;;9.25;5.20;;;;;;;32.07;25.62;101096.00;5511610;32;34087;-87
2022/05/09 10:27:31;;;;;;;4.07;3.70;;;;;;;31.80;26.39;101090.34;5505360;32;32476;-87
2022/05/09 10:30:37;;;;;;;5.45;3.85;;;;;;;31.52;24.23;101096.66;5510418;32;34901;-87
2022/05/09 10:33:50;;;;;;;4.15;3.83;;;;;;;33.30;22.46;101087.16;5517318;32;33657;-87
2022/05/09 10:37:03;;;;;;;6.00;3.97;;;;;;;33.24;22.69;101083.34;5518900;32;35167;-88
2022/05/09 10:40:21;;;;;;;5.18;3.62;;;;;;;32.09;22.47;101091.19;5494041;32;35207;-87
2022/05/09 10:43:40;;;;;;;4.07;3.58;;;;;;;29.13;25.71;101081.09;5513007;32;33111;-88
2022/05/09 10:46:52;;;;;;;6.68;3.72;;;;;;;26.95;29.22;101085.53;5491230;32;35899;-90
2022/05/09 10:50:19;;;;;;;5.07;4.07;;;;;;;25.93;31.04;101085.25;5493687;32;32902;-88
2022/05/09 10:53:27;;;;;;;4.40;3.75;;;;;;;25.53;31.58;101084.81;5510287;32;34782;-89
2022/05/09 10:56:41;;;;;;;8.07;4.25;;;;;;;25.34;33.38;101080.38;5508719;32;34949;-89
2022/05/09 10:59:45;;;;;;;7.07;4.25;;;;;;;26.10;32.83;101077.22;5508549;32;33145;-89
2022/05/09 11:03:11;;;;;;;4.47;3.97;;;;;;;25.02;35.08;101084.50;5509503;32;33455;-90
2022/05/09 11:06:38;;;;;;;5.43;4.45;;;;;;;25.51;34.50;101081.37;5520339;32;34239;-88
2022/05/09 11:09:56;;;;;;;6.90;4.40;;;;;;;25.02;35.79;101085.38;5504304;32;34220;-89
2022/05/09 11:13:11;;;;;;;4.50;4.10;;;;;;;24.79;36.22;101082.19;5503623;32;33651;-88
2022/05/09 11:16:30;;;;;;;4.72;4.20;;;;;;;24.71;36.11;101077.56;5498580;32;33673;-87
2022/05/09 11:19:45;;;;;;;8.05;4.15;;;;;;;24.72;36.63;101079.25;5498321;32;33974;-87
2022/05/09 11:23:09;;;;;;;5.30;4.80;;;;;;;25.60;34.66;101081.47;5496494;32;34428;-88
2022/05/09 11:26:12;;;;;;;6.60;4.70;;;;;;;26.35;33.47;101072.75;5505822;32;34131;-89
2022/05/09 11:29:35;;;;;;;4.57;4.12;;;;;;;27.06;32.34;101073.47;5507856;32;32707;-89
2022/05/09 11:32:43;;;;;;;11.63;4.28;;;;;;;27.70;31.16;101062.75;5506754;32;34059;-88
2022/05/09 11:35:52;;;;;;;7.93;3.97;;;;;;;28.03;29.59;101055.50;5509931;32;34513;-87
2022/05/09 11:39:18;;;;;;;3.95;3.65;;;;;;;28.41;28.05;101044.81;5509042;32;32509;-88
2022/05/09 11:46:53;;;;;;;7.95;4.75;;;;;;;28.23;30.27;101039.63;5508794;32;33041;-88
2022/05/09 11:50:30;;;;;;;5.53;4.05;;;;;;;28.23;28.41;101040.47;5500087;32;33563;-92
2022/05/09 11:53:39;;;;;;;6.97;4.90;;;;;;;28.58;26.87;101050.19;5510855;32;33795;-88
2022/05/09 11:56:50;;;;;;;5.65;5.05;;;;;;;27.09;31.82;101060.37;5511625;32;32586;-88
2022/05/09 11:59:54;;;;;;;;;;;;;;;26.60;33.25;101066.56;5506778;32;32464;-87
2022/05/09 12:02:58;;;;;;;5.18;4.68;;;;;;;24.92;35.73;101060.16;5508781;32;34331;-88
2022/05/09 12:06:04;;;;;;;7.75;4.90;;;;;;;24.56;37.01;101060.09;5509963;32;34521;-88
2022/05/09 12:09:13;;;;;;;6.82;5.03;;;;;;;24.57;37.66;101062.66;5509323;32;32238;-87
2022/05/09 12:12:43;;;;;;;5.12;4.62;;;;;;;24.25;38.07;101069.38;5507934;32;33858;-87
2022/05/09 12:15:48;;;;;;;;;;;;;;;23.95;38.87;101072.16;5508408;32;33649;-87
2022/05/09 12:18:54;;;;;;;10.85;5.43;;;;;;;23.34;40.02;101071.59;5507770;32;33266;-86
2022/05/09 12:22:18;;;;;;;7.37;4.22;;;;;;;23.15;39.45;101078.66;5508556;32;32726;-86
2022/05/09 12:25:34;;;;;;;8.32;4.40;;;;;;;22.10;47.55;101091.59;5510517;32;33996;-88
2022/05/09 12:28:43;;;;;;;11.00;4.85;;;;;;;20.62;54.95;101108.37;5505232;32;33247;-90
2022/05/09 12:32:03;;;;;;;9.98;4.82;;;;;;;19.08;66.19;101126.38;5510697;32;32393;-88
2022/05/09 12:35:08;;;;;;;7.53;5.07;;;;;;;17.67;74.13;101115.59;5513337;32;34670;-89
2022/05/09 12:38:38;;;;;;;7.68;5.40;;;;;;;16.88;84.31;101121.59;5512432;32;33894;-89
2022/05/09 12:41:49;;;;;;;7.12;5.50;;;;;;;16.71;88.24;101115.53;5513083;32;33845;-89
2022/05/09 12:44:56;;;;;;;7.55;5.82;;;;;;;16.63;90.93;101099.94;5535181;26;32373;-88
2022/05/09 12:48:01;;;;;;;8.52;6.28;;;;;;;16.37;94.85;101083.72;5550676;32;33041;-88
2022/05/09 12:51:10;;;;;;;8.63;6.15;;;;;;;16.18;97.94;101075.97;5579207;26;32841;-88
2022/05/09 12:54:15;;;;;;;12.40;7.35;;;;;;;16.29;96.12;101072.62;5521317;32;34455;-86
2022/05/09 12:57:32;;;;;;;10.50;6.53;;;;;;;15.95;99.85;101066.69;5517799;32;32545;-89
2022/05/09 13:00:40;;;;;;;10.35;7.55;;;;;;;15.78;100.00;101055.19;5500243;32;33782;-87
2022/05/09 13:04:07;;;;;;;;;;;;;;;15.82;100.00;101054.03;5513721;32;34511;-90
2022/05/09 13:07:09;;;;;;;12.35;6.50;;;;;;;15.98;100.00;101048.62;5538682;26;35047;-89
2022/05/09 13:10:13;;;;;;;9.82;7.20;;;;;;;16.14;100.00;101045.88;5552788;32;34262;-89
2022/05/09 13:13:36;;;;;;;7.28;5.97;;;;;;;16.24;100.00;101045.31;5551690;32;33463;-89
2022/05/09 13:16:50;;;;;;;10.32;7.05;;;;;;;16.28;100.00;101045.00;5550874;32;35155;-92
2022/05/09 13:19:53;;;;;;;12.37;7.57;;;;;;;16.34;100.00;101043.75;5550768;32;35295;-88
2022/05/09 13:23:01;;;;;;;14.40;7.00;;;;;;;16.47;100.00;101046.50;5537142;32;33687;-89
2022/05/09 13:26:08;;;;;;;10.45;7.20;;;;;;;16.63;100.00;101042.81;5537093;32;33914;-89
2022/05/09 13:29:11;;;;;;;13.10;6.55;;;;;;;16.66;100.00;101039.97;5550404;32;34057;-89
2022/05/09 13:32:29;;;;;;;9.18;6.22;;;;;;;16.86;100.00;101033.31;5596219;26;32472;-89
2022/05/09 13:35:37;;;;;;;8.50;6.50;;;;;;;17.02;96.39;101037.63;5562145;32;32335;-89
2022/05/09 13:38:42;;;;;;;10.25;6.62;;;;;;;17.13;97.31;101027.09;5547173;32;34109;-88
2022/05/09 13:41:45;;;;;;;10.07;7.28;;;;;;;17.26;93.76;101027.13;5552451;32;32376;-89
2022/05/09 13:44:48;;;;;;;10.07;7.60;;;;;;;17.44;98.59;101025.00;5549076;32;33650;-89
2022/05/09 14:14:36;;;;;;;7.97;6.53;;;;;;;18.71;91.53;101025.09;5513749;26;33006;-88
2022/05/09 14:21:27;;;;;;;6.80;6.18;;;;;;;19.88;68.53;101027.94;5212688;26;20135;-89
2022/05/09 14:47:35;;;;;;;6.70;5.22;;;;;;;19.36;72.15;101030.16;978213;26;21082;-89
2022/05/09 14:50:40;;;;;;;6.05;5.43;;;;;;;19.13;74.82;101030.09;5541247;26;32103;-88
2022/05/09 14:53:50;;;;;;;5.95;5.05;;;;;;;18.91;76.09;101023.59;5502917;32;33915;-87
2022/05/09 15:00:30;;;;;;;;;;;;;;;18.77;73.10;101011.22;5479622;32;32372;-87
2022/05/09 15:03:34;;;;;;;6.90;5.82;;;;;;;18.77;77.48;101016.56;5508527;32;34848;-87
2022/05/09 15:06:37;;;;;;;5.97;5.37;;;;;;;18.55;77.08;101015.47;5498206;32;32724;-87
2022/05/09 15:09:40;;;;;;;7.30;5.32;;;;;;;18.42;75.58;101018.19;5512479;32;33577;-87
2022/05/09 15:12:42;;;;;;;8.25;5.80;;;;;;;18.49;73.63;101017.72;5498679;32;32664;-87
2022/05/09 15:15:51;;;;;;;7.90;5.53;;;;;;;18.65;75.23;101023.69;5497797;32;33467;-88
2022/05/09 15:18:54;;;;;;;6.65;5.55;;;;;;;18.66;75.84;101030.78;5511590;32;33970;-87
2022/05/09 15:21:57;;;;;;;6.05;5.28;;;;;;;18.41;79.53;101029.06;5558294;26;34430;-89
2022/05/09 15:25:00;;;;;;;7.68;5.70;;;;;;;18.31;79.18;101035.09;5497738;32;33536;-89
2022/05/09 15:28:04;;;;;;;11.18;6.20;;;;;;;18.27;82.86;101038.09;5511504;32;33938;-88
2022/05/09 15:34:30;;;;;;;12.73;6.22;;;;;;;18.08;84.15;101030.50;5495359;32;32185;-89
2022/05/09 15:37:33;;;;;;;6.95;6.25;;;;;;;18.03;86.53;101031.69;5497203;32;33008;-87
2022/05/09 15:40:44;;;;;;;6.35;5.72;;;;;;;17.89;84.74;101043.37;5500337;32;32675;-90
2022/05/09 15:43:56;;;;;;;9.18;7.12;;;;;;;18.18;83.36;101045.00;5515990;32;33469;-87
2022/05/09 15:47:02;;;;;;;7.93;7.12;;;;;;;17.95;82.54;101044.75;5516353;26;34126;-88
